Time;durP1;ratioP1;P1;durP2;ratioP2;P2;SDS_P1;SDS_P2;PMS_P1;PMS_P2;Temp;Humidity;BMP_temperature;BMP_pressure;BME280_temperature;BME280_humidity;BME280_pressure;Samples;Min_cycle;Max_cycle;Signal;HPM_P1;HPM_P2
2022/03/10 00:01:09;;;;;;;;;58.33;36.67;;;;;9.12;55.61;101811.84;5078265;27;45520;-78
2022/03/10 00:03:34;;;;;;;;;51.67;40.00;;;;;9.17;55.12;101817.09;5078758;27;45698;-78
2022/03/10 00:05:59;;;;;;;;;59.33;43.67;;;;;9.15;54.97;101813.56;5078295;28;45291;-79
2022/03/10 00:08:25;;;;;;;;;61.00;40.00;;;;;9.19;54.87;101829.38;5078842;27;46331;-78
2022/03/10 00:10:50;;;;;;;;;55.67;44.00;;;;;9.10;55.20;101817.97;5078305;27;45250;-78
2022/03/10 00:13:16;;;;;;;;;54.00;39.67;;;;;8.98;55.25;101805.69;5078343;28;45523;-78
2022/03/10 00:15:42;;;;;;;;;57.33;42.00;;;;;9.02;54.99;101815.34;5079361;27;45587;-78
2022/03/10 00:18:08;;;;;;;;;55.00;42.33;;;;;9.02;54.72;101810.09;5078092;27;45907;-78
2022/03/10 00:20:33;;;;;;;;;58.00;44.00;;;;;9.02;54.86;101813.59;5078793;28;45431;-78
2022/03/10 00:22:59;;;;;;;;;58.00;39.00;;;;;8.91;54.88;101794.28;5078060;28;45434;-78
2022/03/10 00:25:24;;;;;;;;;62.00;43.67;;;;;8.91;54.62;101791.66;5078195;27;45377;-78
2022/03/10 00:27:51;;;;;;;;;55.00;42.00;;;;;9.06;54.33;101817.06;5077823;27;45834;-78
2022/03/10 00:30:16;;;;;;;;;59.33;45.67;;;;;8.95;54.28;101806.56;5078072;27;45330;-79
2022/03/10 00:32:50;;;;;;;;;51.00;39.00;;;;;8.99;54.57;101821.47;5079179;27;45312;-79
2022/03/10 00:35:23;;;;;;;;;53.00;42.33;;;;;8.95;54.24;101819.69;5078215;27;45327;-78
2022/03/10 00:37:49;;;;;;;;;58.00;41.67;;;;;8.93;54.31;101817.94;5077723;27;46686;-78
2022/03/10 00:40:16;;;;;;;;;56.67;44.33;;;;;8.93;54.27;101823.19;5078354;27;45384;-78
2022/03/10 00:42:42;;;;;;;;;57.00;43.00;;;;;8.85;54.12;101812.69;5077925;27;45324;-78
2022/03/10 00:45:09;;;;;;;;;54.33;45.00;;;;;8.82;54.21;101817.94;5077519;27;45452;-78
2022/03/10 00:47:35;;;;;;;;;60.67;45.67;;;;;8.79;54.22;101818.78;5077692;27;46885;-78
2022/03/10 00:50:02;;;;;;;;;62.67;46.00;;;;;8.49;54.22;101777.59;5078022;27;45308;-78
2022/03/10 00:52:28;;;;;;;;;55.00;42.00;;;;;8.73;54.33;101818.78;5077681;27;45368;-78
2022/03/10 00:54:53;;;;;;;;;52.33;43.00;;;;;8.60;54.14;101802.13;5078104;27;45512;-78
2022/03/10 00:57:19;;;;;;;;;63.33;46.33;;;;;8.63;54.35;101822.28;5078060;27;46283;-78
2022/03/10 00:59:44;;;;;;;;;55.33;43.67;;;;;8.63;54.07;101833.63;5077633;27;45317;-79
2022/03/10 01:02:10;;;;;;;;;52.67;37.67;;;;;8.58;54.22;101822.22;5078591;27;45398;-78
2022/03/10 01:04:35;;;;;;;;;57.33;43.00;;;;;8.46;54.11;101811.72;5078303;27;45237;-79
2022/03/10 01:07:00;;;;;;;;;57.00;44.00;;;;;8.33;54.00;101790.63;5077563;27;45660;-79
2022/03/10 01:09:26;;;;;;;;;52.00;43.33;;;;;8.38;53.48;101806.41;5077546;27;45327;-78
2022/03/10 01:11:52;;;;;;;;;55.00;40.33;;;;;8.47;53.48;101821.34;5077993;28;45280;-77
2022/03/10 01:14:17;;;;;;;;;52.67;41.00;;;;;8.48;53.54;101828.31;5077639;27;45374;-78
2022/03/10 01:16:42;;;;;;;;;53.00;39.67;;;;;8.42;53.36;101816.03;5077443;27;46128;-78
2022/03/10 01:19:08;;;;;;;;;55.33;43.00;;;;;8.45;53.67;101818.72;5077794;27;45374;-77
2022/03/10 01:21:34;;;;;;;;;59.00;39.33;;;;;8.36;53.44;101810.75;5089524;27;45366;-77
2022/03/10 01:24:00;;;;;;;;;64.33;43.00;;;;;8.36;53.04;101814.28;5077345;27;45434;-77
2022/03/10 01:26:26;;;;;;;;;55.00;43.33;;;;;8.33;53.58;101813.38;5077011;27;47023;-78
2022/03/10 01:28:52;;;;;;;;;62.00;45.33;;;;;8.25;53.78;101808.13;5077226;27;45562;-78
2022/03/10 01:31:17;;;;;;;;;56.67;46.67;;;;;8.27;53.11;101823.84;5077627;27;45479;-78
2022/03/10 01:33:43;;;;;;;;;58.00;42.00;;;;;8.24;53.36;101819.47;5077237;27;45604;-78
2022/03/10 01:36:08;;;;;;;;;55.67;42.00;;;;;8.17;53.27;101807.19;5076661;27;46963;-78
2022/03/10 01:38:39;;;;;;;;;52.00;39.00;;;;;8.25;53.16;101820.34;5076978;27;45534;-78
2022/03/10 01:41:05;;;;;;;;;57.00;41.00;;;;;8.21;53.24;101815.97;5079295;27;45390;-78
2022/03/10 01:43:30;;;;;;;;;57.00;44.67;;;;;8.18;52.98;101806.34;5080685;27;45331;-78
2022/03/10 01:45:57;;;;;;;;;54.67;43.67;;;;;8.10;53.23;101800.16;5080153;27;47139;-77
2022/03/10 01:48:22;;;;;;;;;54.00;38.67;;;;;8.12;52.99;101808.94;5080525;27;45368;-77
2022/03/10 01:50:48;;;;;;;;;53.00;40.00;;;;;8.05;53.16;101797.53;5079937;27;45407;-77
2022/03/10 01:53:14;;;;;;;;;53.00;39.67;;;;;8.09;53.16;101811.50;5080563;27;45415;-77
2022/03/10 01:55:39;;;;;;;;;55.67;42.00;;;;;7.99;53.11;101803.63;5080276;27;46553;-77
2022/03/10 01:58:05;;;;;;;;;55.67;41.33;;;;;7.97;53.16;101807.09;5080085;27;45662;-77
2022/03/10 02:00:30;;;;;;;;;51.67;40.33;;;;;8.01;53.25;101812.34;5080521;28;45324;-79
2022/03/10 02:02:56;;;;;;;;;58.00;41.33;;;;;7.94;53.02;101805.31;5080902;27;45347;-78
2022/03/10 02:05:21;;;;;;;;;58.33;38.00;;;;;7.98;53.22;101812.34;5080534;27;46112;-79
2022/03/10 02:10:32;;;;;;;;;49.67;38.67;;;;;7.93;52.96;101808.84;5079187;28;45761;-78
2022/03/10 02:12:57;;;;;;;;;57.00;42.67;;;;;7.70;53.11;101764.13;5080490;27;45447;-78
2022/03/10 02:18:09;;;;;;;;;53.00;42.33;;;;;7.93;52.84;101810.56;5080359;28;45444;-77
2022/03/10 02:20:36;;;;;;;;;52.33;40.67;;;;;7.78;53.19;101786.00;5080091;27;45232;-76
2022/03/10 02:23:01;;;;;;;;;47.67;39.67;;;;;7.75;53.06;101778.13;5080158;27;45561;-78
2022/03/10 02:25:27;;;;;;;;;50.67;40.00;;;;;7.83;52.99;101794.78;5079743;27;46417;-78
2022/03/10 02:27:55;;;;;;;;;54.00;41.00;;;;;7.86;53.29;101807.06;5079966;27;45487;-78
2022/03/10 02:30:24;;;;;;;;;53.00;41.67;;;;;7.87;53.42;101815.78;5079635;27;45256;-77
2022/03/10 02:32:49;;;;;;;;;57.00;43.00;;;;;7.71;53.16;101786.88;5080397;27;45441;-78
2022/03/10 02:35:15;;;;;;;;;57.33;40.33;;;;;7.73;53.37;101789.50;5079543;27;46107;-77
2022/03/10 02:37:41;;;;;;;;;57.33;42.00;;;;;7.79;53.39;101800.88;5079801;27;45356;-77
2022/03/10 02:40:08;;;;;;;;;62.33;40.67;;;;;7.82;53.40;101800.91;5079605;27;45514;-78
2022/03/10 02:42:34;;;;;;;;;56.00;41.67;;;;;7.78;53.32;101800.88;5080512;27;45356;-78
2022/03/10 02:45:00;;;;;;;;;53.67;40.00;;;;;7.82;53.52;101805.28;5078773;27;45375;-78
2022/03/10 02:47:25;;;;;;;;;53.67;39.33;;;;;7.74;53.35;101800.00;5078405;27;45320;-79
2022/03/10 02:49:50;;;;;;;;;50.00;38.33;;;;;7.71;53.48;101799.09;5078441;28;45430;-78
2022/03/10 02:52:16;;;;;;;;;47.00;34.33;;;;;7.72;54.16;101809.56;5078406;27;45644;-78
2022/03/10 02:54:43;;;;;;;;;52.00;40.67;;;;;7.71;53.76;101810.47;5077944;27;46505;-78
2022/03/10 02:57:08;;;;;;;;;51.50;40.00;;;;;7.60;53.64;101797.28;5078708;27;45391;-78
2022/03/10 02:59:34;;;;;;;;;47.00;36.67;;;;;7.51;53.78;101786.75;5078421;28;45311;-78
2022/03/10 03:01:59;;;;;;;;;56.33;38.00;;;;;7.63;53.71;101807.78;5079177;27;45200;-78
2022/03/10 03:04:26;;;;;;;;;44.33;37.33;;;;;7.62;53.59;101807.75;5078091;27;46631;-77
2022/03/10 03:06:51;;;;;;;;;52.33;38.00;;;;;7.63;53.69;101820.88;5078161;27;45246;-76
2022/03/10 03:09:17;;;;;;;;;60.33;42.00;;;;;7.53;53.76;101792.00;5077706;28;45326;-78
2022/03/10 03:11:42;;;;;;;;;51.00;40.33;;;;;7.53;53.76;101800.72;5078520;27;45408;-78
2022/03/10 03:14:08;;;;;;;;;51.33;37.67;;;;;7.52;53.74;101803.34;5078066;27;46560;-78
2022/03/10 03:16:33;;;;;;;;;52.67;41.33;;;;;7.59;53.91;101811.22;5077972;27;45354;-79
2022/03/10 03:18:58;;;;;;;;;44.00;35.33;;;;;7.55;53.46;101809.50;5078403;28;45305;-78
2022/03/10 03:21:24;;;;;;;;;62.00;47.67;;;;;7.45;54.07;101798.06;5078532;27;45450;-78
2022/03/10 03:23:50;;;;;;;;;45.00;38.00;;;;;7.43;53.79;101815.50;5078248;28;46660;-79
2022/03/10 03:26:16;;;;;;;;;50.67;36.67;;;;;7.38;53.95;101805.84;5077860;27;45561;-78
2022/03/10 03:28:42;;;;;;;;;57.00;43.00;;;;;7.53;54.11;101831.31;5077765;27;45510;-79
2022/03/10 03:31:07;;;;;;;;;39.00;37.00;;;;;7.47;54.16;101826.88;5078556;28;45312;-79
2022/03/10 03:33:33;;;;;;;;;52.33;38.00;;;;;7.46;54.34;101827.75;5078276;28;46568;-77
2022/03/10 03:35:58;;;;;;;;;50.33;36.33;;;;;7.40;54.32;101818.09;5077989;28;45241;-79
2022/03/10 03:38:24;;;;;;;;;53.00;36.67;;;;;7.40;54.13;101811.97;5078059;28;45391;-79
2022/03/10 03:40:50;;;;;;;;;50.00;39.67;;;;;7.50;54.27;101842.63;5077626;27;45312;-79
2022/03/10 03:43:16;;;;;;;;;54.50;37.50;;;;;7.34;54.08;101809.31;5033532;27;1248221;-77
2022/03/10 03:45:41;;;;;;;;;52.00;40.33;;;;;7.43;54.52;101825.09;5079058;27;45419;-79
2022/03/10 03:48:07;;;;;;;;;49.67;40.33;;;;;7.42;54.70;101829.47;5079137;28;45229;-79
2022/03/10 03:50:32;;;;;;;;;49.33;37.33;;;;;7.30;54.73;101808.41;5079464;27;45645;-78
2022/03/10 03:52:58;;;;;;;;;53.67;38.00;;;;;7.36;54.86;101818.06;5079599;28;47176;-80
2022/03/10 03:55:24;;;;;;;;;46.33;38.67;;;;;7.12;54.87;101769.88;5079049;28;45428;-79
2022/03/10 03:57:49;;;;;;;;;44.00;38.33;;;;;7.39;54.76;101815.47;5079007;27;45471;-79
2022/03/10 04:00:18;;;;;;;;;48.67;34.33;;;;;7.28;55.12;101794.44;5079270;28;45783;-79
2022/03/10 04:02:44;;;;;;;;;51.00;36.67;;;;;7.09;54.91;101769.84;5078148;27;45649;-79
2022/03/10 04:05:10;;;;;;;;;50.67;38.00;;;;;7.35;54.99;101808.44;5078906;27;45432;-79
2022/03/10 04:07:36;;;;;;;;;48.00;39.00;;;;;7.26;55.26;101807.53;5078989;27;45225;-80
2022/03/10 04:10:03;;;;;;;;;55.00;40.33;;;;;7.30;55.11;101821.50;5078500;27;46087;-78
2022/03/10 04:12:28;;;;;;;;;51.33;40.33;;;;;7.21;55.18;101808.34;5077641;27;48034;-78
2022/03/10 04:14:53;;;;;;;;;48.67;36.33;;;;;7.35;54.98;101832.00;5077842;27;45364;-78
2022/03/10 04:17:19;;;;;;;;;55.00;37.00;;;;;7.39;54.70;101839.94;5078271;28;45621;-78
2022/03/10 04:19:44;;;;;;;;;53.00;38.67;;;;;7.22;55.08;101817.94;5078026;27;45321;-78
2022/03/10 04:22:10;;;;;;;;;52.33;37.33;;;;;7.25;55.44;101834.56;5078242;27;46340;-78
2022/03/10 04:24:35;;;;;;;;;47.67;38.33;;;;;7.05;55.56;101802.09;5077718;28;45452;-77
2022/03/10 04:27:00;;;;;;;;;50.33;40.33;;;;;7.20;55.80;101827.53;5078091;28;45401;-78
2022/03/10 04:29:26;;;;;;;;;46.33;37.67;;;;;7.17;55.84;101830.13;5078069;28;45368;-78
2022/03/10 04:31:52;;;;;;;;;53.00;39.00;;;;;7.24;56.03;101848.53;5077879;27;47146;-77
2022/03/10 04:34:17;;;;;;;;;50.33;39.67;;;;;7.13;56.29;101837.97;5077399;27;45736;-78
2022/03/10 04:36:43;;;;;;;;;54.33;40.67;;;;;7.17;56.07;101843.22;5077857;27;45373;-79
2022/03/10 04:39:08;;;;;;;;;53.00;40.00;;;;;7.18;56.20;101845.84;5078145;28;45699;-79
2022/03/10 04:41:36;;;;;;;;;50.67;37.00;;;;;7.14;56.20;101839.72;5078565;27;46266;-79
2022/03/10 04:44:01;;;;;;;;;54.67;41.00;;;;;6.95;56.52;101807.22;5078271;27;45495;-80
2022/03/10 04:46:27;;;;;;;;;49.00;38.00;;;;;7.11;56.76;101837.06;5078660;27;45194;-79
2022/03/10 04:48:52;;;;;;;;;54.00;41.00;;;;;7.04;56.95;101837.00;5077571;27;45526;-79
2022/03/10 04:51:18;;;;;;;;;52.33;38.00;;;;;6.99;57.07;101831.72;5078183;27;45482;-78
2022/03/10 04:53:44;;;;;;;;;42.67;36.00;;;;;6.91;56.62;101825.53;5077376;27;45473;-77
2022/03/10 04:56:09;;;;;;;;;55.00;40.33;;;;;6.90;57.63;101829.03;5077661;27;45428;-78
2022/03/10 04:58:35;;;;;;;;;49.00;38.33;;;;;6.90;57.59;101829.03;5078028;27;45545;-78
2022/03/10 05:01:00;;;;;;;;;49.33;38.33;;;;;6.92;57.53;101840.38;5076787;27;46459;-77
2022/03/10 05:03:26;;;;;;;;;40.00;35.00;;;;;6.96;57.36;101842.16;5077298;27;45312;-78
2022/03/10 05:05:51;;;;;;;;;51.33;39.67;;;;;6.91;57.76;101838.63;5077639;28;45746;-78
2022/03/10 05:08:16;;;;;;;;;46.00;37.33;;;;;6.89;58.22;101840.34;5077529;28;45425;-78
2022/03/10 05:10:42;;;;;;;;;48.67;39.67;;;;;6.78;58.17;101819.28;5077212;27;46626;-78
2022/03/10 05:13:07;;;;;;;;;52.33;38.67;;;;;6.79;58.19;101832.38;5077567;28;45429;-77
2022/03/10 05:15:33;;;;;;;;;58.33;38.33;;;;;6.77;58.47;101822.78;5077419;27;45327;-78
2022/03/10 05:18:00;;;;;;;;;52.33;38.67;;;;;6.77;58.73;101828.88;5077662;27;45250;-78
2022/03/10 05:20:26;;;;;;;;;47.33;34.67;;;;;6.83;58.40;101838.53;5077376;27;45650;-77
2022/03/10 05:22:54;;;;;;;;;46.33;37.00;;;;;6.81;58.82;101835.00;5076662;27;45456;-76
2022/03/10 05:25:22;;;;;;;;;48.00;36.33;;;;;6.82;58.76;101838.53;5076994;27;45444;-81
2022/03/10 05:27:48;;;;;;;;;53.33;39.00;;;;;6.80;58.84;101843.75;5076934;27;45466;-77
2022/03/10 05:30:15;;;;;;;;;49.33;38.00;;;;;6.77;58.96;101835.88;5076486;27;47432;-78
2022/03/10 05:32:40;;;;;;;;;40.33;35.33;;;;;6.65;59.30;101825.25;5077614;27;45428;-79
2022/03/10 05:35:08;;;;;;;;;52.33;37.33;;;;;6.68;59.18;101830.50;5076390;27;45390;-77
2022/03/10 05:37:36;;;;;;;;;55.67;39.33;;;;;6.72;59.07;101843.66;5077627;27;45317;-78
2022/03/10 05:40:05;;;;;;;;;54.67;41.00;;;;;6.62;60.15;101827.00;5076821;27;46452;-80
2022/03/10 05:42:30;;;;;;;;;48.67;39.67;;;;;6.60;59.65;101825.22;5077150;27;45363;-81
2022/03/10 05:44:56;;;;;;;;;51.33;41.00;;;;;6.49;60.20;101809.41;5078209;27;45352;-80
2022/03/10 05:47:22;;;;;;;;;44.67;34.00;;;;;6.66;60.17;101833.13;5077458;27;45380;-78
2022/03/10 05:49:49;;;;;;;;;59.67;43.00;;;;;6.61;60.70;101838.31;5076624;27;45461;-79
2022/03/10 05:52:14;;;;;;;;;53.33;39.33;;;;;6.65;60.61;101840.94;5077001;27;45401;-79
2022/03/10 05:54:40;;;;;;;;;58.67;38.00;;;;;6.59;60.05;101834.81;5077482;27;45339;-79
2022/03/10 05:57:05;;;;;;;;;55.33;41.33;;;;;6.61;61.03;101833.06;5076736;28;45474;-79
2022/03/10 05:59:30;;;;;;;;;49.00;33.67;;;;;6.56;60.57;101824.28;5076806;28;46414;-77
2022/03/10 06:01:56;;;;;;;;;52.00;37.33;;;;;6.67;60.67;101836.63;5076821;27;45346;-78
2022/03/10 06:04:21;;;;;;;;;55.67;40.00;;;;;6.52;60.62;101819.91;5077231;27;45423;-79
2022/03/10 06:06:47;;;;;;;;;46.67;37.67;;;;;6.53;60.91;101826.00;5077600;28;45574;-78
2022/03/10 06:09:12;;;;;;;;;47.67;38.00;;;;;6.60;61.12;101835.69;5076860;28;47279;-77
2022/03/10 06:11:38;;;;;;;;;48.00;37.00;;;;;6.61;61.11;101838.31;5077222;27;45347;-79
2022/03/10 06:14:03;;;;;;;;;52.00;37.67;;;;;6.61;60.46;101838.31;5076046;27;45556;-83
2022/03/10 06:16:29;;;;;;;;;50.00;41.00;;;;;6.51;60.61;101825.97;5077126;27;45251;-83
2022/03/10 06:18:55;;;;;;;;;48.67;38.00;;;;;6.48;60.99;101818.09;5077090;27;46262;-83
2022/03/10 06:21:21;;;;;;;;;52.67;37.67;;;;;6.56;60.81;101839.97;5077024;28;45228;-82
2022/03/10 06:23:47;;;;;;;;;46.67;35.67;;;;;6.53;60.58;101832.09;5076753;27;45233;-84
2022/03/10 06:26:13;;;;;;;;;45.33;37.00;;;;;6.56;60.87;101834.75;5077327;28;45400;-83
2022/03/10 06:28:38;;;;;;;;;51.67;39.33;;;;;6.53;61.12;101826.00;5079943;27;46308;-83
2022/03/10 06:31:04;;;;;;;;;51.33;38.33;;;;;6.68;61.41;101847.13;5077789;27;45494;-81
2022/03/10 06:33:30;;;;;;;;;46.33;38.00;;;;;6.62;61.06;101837.47;5072141;27;45368;-81
2022/03/10 06:35:55;;;;;;;;;49.67;39.00;;;;;6.67;61.29;101839.25;5059964;28;45347;-82
2022/03/10 06:38:20;;;;;;;;;46.00;37.00;;;;;6.62;61.15;101831.31;5059570;28;46512;-84
2022/03/10 06:40:46;;;;;;;;;37.67;29.67;;;;;6.82;60.80;101856.84;5059546;28;45419;-84
2022/03/10 06:43:11;;;;;;;;;69.50;51.25;;;;;6.92;61.12;101863.94;5059788;28;45392;-85
2022/03/10 06:45:37;;;;;;;;;57.00;41.67;;;;;7.09;59.48;101849.28;5066399;28;45458;-83
2022/03/10 06:48:02;;;;;;;;;55.00;38.33;;;;;7.14;60.04;101841.44;5079638;27;47222;-84
2022/03/10 06:50:28;;;;;;;;;60.33;45.33;;;;;7.18;60.15;101850.22;5079341;28;45468;-83
2022/03/10 06:52:56;;;;;;;;;53.00;39.00;;;;;7.19;59.81;101860.72;5079950;27;45227;-82
2022/03/10 06:55:23;;;;;;;;;38.67;34.67;;;;;6.93;59.82;101811.59;5079786;27;45290;-81
2022/03/10 06:57:48;;;;;;;;;46.00;37.33;;;;;7.22;59.87;101858.13;5079481;27;46438;-81
2022/03/10 07:00:14;;;;;;;;;51.00;37.33;;;;;7.23;59.93;101856.38;5079593;27;45284;-81
2022/03/10 07:02:39;;;;;;;;;49.67;40.33;;;;;7.29;59.71;101862.56;5079352;27;45449;-82
2022/03/10 07:05:07;;;;;;;;;52.33;41.00;;;;;7.28;59.78;101868.66;5079703;28;45351;-81
2022/03/10 07:07:32;;;;;;;;;49.33;38.67;;;;;7.32;59.55;101861.72;5079375;27;47361;-81
2022/03/10 07:09:58;;;;;;;;;53.33;42.00;;;;;7.36;59.18;101857.38;5078799;27;45236;-82
2022/03/10 07:12:23;;;;;;;;;54.67;42.00;;;;;7.34;59.39;101853.88;5079595;28;45718;-82
2022/03/10 07:14:48;;;;;;;;;50.67;41.67;;;;;7.16;59.18;101816.16;5079415;27;45759;-82
2022/03/10 07:17:14;;;;;;;;;59.67;44.00;;;;;7.77;59.47;101860.31;5078543;27;46531;-81
2022/03/10 07:19:39;;;;;;;;;44.33;37.00;;;;;8.79;56.74;101870.44;5079359;27;45311;-82
2022/03/10 07:22:05;;;;;;;;;54.00;40.00;;;;;9.06;55.41;101869.63;5079490;27;45218;-82
2022/03/10 07:24:31;;;;;;;;;51.00;38.33;;;;;8.95;55.13;101863.50;5079450;28;45481;-82
2022/03/10 07:26:57;;;;;;;;;42.67;36.33;;;;;8.72;55.53;101856.41;5078731;27;46584;-82
2022/03/10 07:29:22;;;;;;;;;56.67;44.33;;;;;8.83;56.08;101867.84;5079029;27;45495;-82
2022/03/10 07:31:47;;;;;;;;;55.67;39.33;;;;;9.10;55.74;101855.63;5078620;28;45665;-82
2022/03/10 07:34:13;;;;;;;;;50.67;41.33;;;;;9.30;55.18;101875.78;5079360;27;45461;-82
2022/03/10 07:36:40;;;;;;;;;47.33;36.67;;;;;9.31;54.92;101878.41;5078699;28;46407;-81
2022/03/10 07:39:06;;;;;;;;;50.00;38.67;;;;;9.67;54.03;101870.53;5077674;27;45349;-82
2022/03/10 07:41:31;;;;;;;;;50.33;38.33;;;;;9.53;54.10;101850.38;5078896;27;45431;-83
2022/03/10 07:43:57;;;;;;;;;39.33;35.33;;;;;9.40;54.63;101872.28;5078824;28;45426;-82
2022/03/10 07:46:23;;;;;;;;;47.33;37.67;;;;;9.17;54.90;101859.13;5078620;27;46019;-83
2022/03/10 07:48:51;;;;;;;;;51.33;39.00;;;;;9.38;54.78;101861.78;5078875;27;45234;-82
2022/03/10 07:51:18;;;;;;;;;47.00;37.67;;;;;10.08;54.05;101878.34;5078870;27;45427;-82
2022/03/10 07:53:43;;;;;;;;;47.67;36.67;;;;;10.06;53.54;101868.69;5078451;27;45498;-81
2022/03/10 07:56:08;;;;;;;;;46.00;35.00;;;;;9.63;53.44;101824.97;5078699;27;46201;-82
2022/03/10 07:58:34;;;;;;;;;44.33;37.33;;;;;9.74;53.36;101844.22;5078796;28;45348;-81
2022/03/10 08:00:59;;;;;;;;;46.33;36.00;;;;;10.00;53.39;101874.00;5078795;28;45474;-81
2022/03/10 08:03:27;;;;;;;;;44.00;36.33;;;;;9.98;53.29;101852.94;5079271;27;45361;-82
2022/03/10 08:05:54;;;;;;;;;45.33;36.00;;;;;10.13;52.69;101856.41;5078571;28;46409;-81
2022/03/10 08:08:19;;;;;;;;;50.67;36.00;;;;;9.99;52.95;101822.22;5078199;27;45457;-82
2022/03/10 08:10:45;;;;;;;;;44.67;34.67;;;;;11.23;51.42;101868.16;5078156;27;45751;-78
2022/03/10 08:13:10;;;;;;;;;43.00;36.67;;;;;12.19;48.12;101856.75;5078579;27;45242;-78
2022/03/10 08:15:36;;;;;;;;;53.33;41.67;;;;;12.07;48.51;101863.03;5078302;28;46523;-79
2022/03/10 08:18:03;;;;;;;;;43.67;35.33;;;;;11.59;49.60;101845.03;5078005;27;45529;-73
2022/03/10 08:20:28;;;;;;;;;47.33;37.33;;;;;11.57;49.68;101859.97;5077865;27;45481;-78
2022/03/10 08:22:53;;;;;;;;;44.67;34.67;;;;;11.96;49.71;101854.34;5078129;28;45315;-78
2022/03/10 08:25:19;;;;;;;;;44.00;34.33;;;;;13.19;46.79;101857.16;5078406;28;47343;-78
2022/03/10 08:27:47;;;;;;;;;45.67;37.00;;;;;14.10;46.28;101861.75;5077736;28;45435;-78
2022/03/10 08:30:13;;;;;;;;;41.67;36.67;;;;;14.08;45.31;101854.75;5076931;27;45566;-78
2022/03/10 08:32:40;;;;;;;;;48.33;39.00;;;;;14.36;43.94;101849.78;5077180;27;46842;-78
2022/03/10 08:35:06;;;;;;;;;47.67;36.00;;;;;14.24;43.89;101842.91;5077478;27;45291;-79
2022/03/10 08:37:32;;;;;;;;;43.33;36.00;;;;;14.80;44.46;101865.66;5077668;27;45335;-78
2022/03/10 08:39:57;;;;;;;;;45.00;36.67;;;;;15.77;43.35;101850.00;5078302;27;45219;-78
2022/03/10 08:42:22;;;;;;;;;46.33;37.00;;;;;16.54;42.01;101858.50;5075956;28;45523;-78
2022/03/10 08:44:48;;;;;;;;;46.67;36.00;;;;;15.97;40.81;101852.13;5077241;28;46561;-78
2022/03/10 08:47:13;;;;;;;;;42.33;34.00;;;;;15.32;42.97;101856.47;5077924;27;45453;-79
2022/03/10 08:49:39;;;;;;;;;43.33;34.00;;;;;14.54;43.23;101847.63;5077142;28;45842;-76
2022/03/10 08:52:05;;;;;;;;;45.67;36.00;;;;;13.86;44.55;101804.84;5078085;27;45387;-78
2022/03/10 08:54:30;;;;;;;;;44.67;32.33;;;;;13.89;44.74;101831.25;5077882;27;46540;-78
2022/03/10 08:56:55;;;;;;;;;45.00;35.33;;;;;14.70;44.18;101838.47;5077318;27;45320;-77
2022/03/10 08:59:21;;;;;;;;;44.67;35.67;;;;;15.84;41.69;101835.69;5077879;27;45312;-75
2022/03/10 09:01:46;;;;;;;;;39.33;35.00;;;;;16.38;41.13;101841.22;5077836;27;45332;-75
2022/03/10 09:04:11;;;;;;;;;37.00;30.67;;;;;16.65;41.12;101822.72;5077421;27;46952;-75
2022/03/10 09:06:37;;;;;;;;;38.00;32.67;;;;;17.32;39.12;101830.31;5077533;28;45323;-75
2022/03/10 09:09:03;;;;;;;;;45.67;37.00;;;;;17.40;38.80;101828.28;5077784;28;45353;-75
2022/03/10 09:11:29;;;;;;;;;43.00;36.00;;;;;17.66;38.51;101825.63;5077528;28;45780;-76
2022/03/10 09:13:54;;;;;;;;;40.33;35.00;;;;;17.33;38.45;101836.53;5077126;27;46207;-75
2022/03/10 09:16:21;;;;;;;;;38.00;32.33;;;;;16.75;40.96;101833.94;5077510;27;45379;-78
2022/03/10 09:18:47;;;;;;;;;44.67;33.67;;;;;16.13;39.95;101820.69;5077375;27;45269;-75
2022/03/10 09:21:13;;;;;;;;;47.33;38.33;;;;;16.26;40.99;101828.31;5077774;27;45433;-75
2022/03/10 09:23:39;;;;;;;;;42.33;35.00;;;;;16.15;41.12;101824.19;5076886;27;46618;-75
2022/03/10 09:26:04;;;;;;;;;45.33;34.33;;;;;16.00;42.02;101825.50;5077053;27;45357;-76
2022/03/10 09:28:30;;;;;;;;;41.33;35.00;;;;;15.72;41.77;101782.84;5077587;27;45324;-77
2022/03/10 09:30:55;;;;;;;;;43.33;34.33;;;;;15.95;40.49;101818.56;5077702;28;45366;-78
2022/03/10 09:33:21;;;;;;;;;40.33;35.67;;;;;16.05;40.74;101781.97;5077347;28;45386;-75
2022/03/10 09:35:46;;;;;;;;;51.33;38.67;;;;;16.41;40.34;101814.59;5076191;28;45549;-75
2022/03/10 09:38:12;;;;;;;;;43.00;36.33;;;;;16.97;39.08;101827.03;5076415;27;45798;-74
2022/03/10 09:40:37;;;;;;;;;39.67;36.00;;;;;17.19;40.12;101813.94;5076136;28;45464;-77
2022/03/10 09:43:03;;;;;;;;;45.67;38.00;;;;;17.28;39.34;101815.41;5075538;27;46071;-77
2022/03/10 09:45:30;;;;;;;;;44.00;35.33;;;;;17.22;39.11;101802.28;5076552;27;45317;-77
2022/03/10 09:47:55;;;;;;;;;39.67;36.00;;;;;17.70;39.80;101804.19;5076538;27;45375;-77
2022/03/10 09:50:21;;;;;;;;;43.33;33.33;;;;;18.13;37.78;101812.44;5076065;27;45226;-76
2022/03/10 09:52:47;;;;;;;;;37.00;32.67;;;;;18.36;37.29;101808.03;5075799;27;47283;-77
2022/03/10 09:55:15;;;;;;;;;38.33;32.67;;;;;18.15;36.89;101778.56;5076643;27;45731;-74
2022/03/10 09:57:42;;;;;;;;;37.33;33.33;;;;;18.59;37.71;101817.81;5075869;27;45473;-74
2022/03/10 10:00:10;;;;;;;;;39.00;35.33;;;;;18.92;36.45;101799.59;5076090;27;45378;-74
2022/03/10 10:02:37;;;;;;;;;44.67;35.00;;;;;18.78;36.75;101810.78;5078550;27;45522;-74
2022/03/10 10:05:17;;;;;;;;;41.67;36.00;;;;;18.59;37.30;101815.13;5079899;27;45392;-75
2022/03/10 10:08:02;;;;;;;;;41.33;30.00;;;;;18.26;38.91;101810.16;5079599;27;45368;-76
2022/03/10 10:10:29;;;;;;;;;39.00;30.67;;;;;18.18;37.90;101802.47;5079775;27;45427;-76
2022/03/10 10:12:55;;;;;;;;;38.00;32.67;;;;;18.16;37.74;101793.66;5078589;27;46533;-76
2022/03/10 10:15:20;;;;;;;;;43.00;33.00;;;;;18.54;38.37;101809.09;5079243;27;45339;-76
2022/03/10 10:17:55;;;;;;;;;44.33;34.00;;;;;19.37;37.03;101796.84;5079750;27;45682;-75
2022/03/10 10:20:20;;;;;;;;;34.67;31.67;;;;;20.48;34.29;101771.34;5079815;27;45347;-75
2022/03/10 10:22:48;;;;;;;;;39.33;33.67;;;;;21.90;32.84;101791.00;5079299;28;46317;-75
2022/03/10 10:25:19;;;;;;;;;38.00;33.33;;;;;22.94;32.52;101791.47;5079319;27;45541;-77
2022/03/10 10:27:46;;;;;;;;;36.00;31.67;;;;;23.82;30.56;101788.09;5079271;27;45253;-78
2022/03/10 10:30:13;;;;;;;;;38.67;33.00;;;;;24.38;29.08;101796.22;5079655;27;45458;-78
2022/03/10 10:32:50;;;;;;;;;30.67;27.67;;;;;24.63;30.69;101802.72;5079176;27;46362;-79
2022/03/10 10:35:23;;;;;;;;;36.67;32.00;;;;;24.70;28.58;101781.66;5079116;27;45426;-79
2022/03/10 10:37:54;;;;;;;;;32.33;30.33;;;;;24.69;29.59;101788.88;5079433;27;45460;-78
2022/03/10 10:40:30;;;;;;;;;35.33;30.33;;;;;24.37;29.39;101794.50;5079378;27;45313;-76
2022/03/10 10:42:56;;;;;;;;;37.00;32.33;;;;;23.75;29.58;101776.81;5078721;27;46503;-75
2022/03/10 10:45:33;;;;;;;;;34.00;28.67;;;;;23.09;30.32;101780.78;5078878;27;45885;-75
2022/03/10 10:47:58;;;;;;;;;37.33;29.33;;;;;22.48;31.55;101782.53;5059331;28;45859;-76
2022/03/10 10:50:24;;;;;;;;;33.33;29.67;;;;;21.75;32.24;101773.03;5078048;28;45519;-76
2022/03/10 10:52:49;;;;;;;;;36.00;31.67;;;;;21.18;32.94;101754.56;5079270;27;45444;-76
2022/03/10 10:55:14;;;;;;;;;45.00;35.33;;;;;20.83;33.28;101773.28;5079175;27;45421;-76
2022/03/10 10:57:40;;;;;;;;;39.67;33.33;;;;;20.44;33.73;101774.25;5079086;28;45418;-76
2022/03/10 11:00:13;;;;;;;;;34.67;33.00;;;;;19.98;34.53;101770.13;5079473;27;45358;-77
2022/03/10 11:02:44;;;;;;;;;41.00;33.00;;;;;19.67;34.60;101774.13;5078988;27;45446;-78
2022/03/10 11:05:12;;;;;;;;;35.33;31.33;;;;;19.38;35.52;101767.41;5078659;27;45428;-79
2022/03/10 11:07:41;;;;;;;;;31.00;30.33;;;;;19.14;36.06;101761.34;5079168;27;45411;-79
2022/03/10 11:10:11;;;;;;;;;38.67;33.00;;;;;18.70;37.10;101756.88;5077578;28;45502;-78
2022/03/10 11:12:40;;;;;;;;;34.33;31.67;;;;;18.33;36.75;101749.47;5078285;27;46370;-80
2022/03/10 11:15:07;;;;;;;;;35.67;31.67;;;;;18.03;37.87;101753.25;5078967;27;45461;-79